Latest Weather Observations for Braidwood

IDN60901

Issued at 11:25 pm EST Thursday 24 April 2014 (issued every 10 minutes, with the page automatically refreshed every 10 minutes)

About weather observations | Map of Canberra area stations | Latest observations for Canberra area | Other Formats
Station Details ID: 069132 Name: BRAIDWOOD RACECOURSE AWS Lat: -35.43 Lon: 149.78 Height: 665.2 m
Data from the previous 72 hours. | See also: Recent months at Braidwood
Date/Time
EST
Tmp

°C
App
Tmp
°C
Dew
Point
°C
Rel
Hum
%
Delta-T

°C
Wind Press
QNH
hPa
Press
MSL
hPa
Rain
since
9 am
mm
Dir
 
Spd
km/h
Gust
km/h
Spd
kts
Gust
kts
24/11:00pm 11.8 11.2 10.4 91 0.7 SE 4 6 2 3 1020.6 1019.7 0.0
24/10:30pm 11.9 11.0 10.5 91 0.7 SE 6 9 3 5 1020.6 - 0.0
24/10:00pm 12.2 10.8 10.9 92 0.7 SE 9 11 5 6 1020.6 1019.7 0.0
24/09:30pm 12.5 11.3 11.7 95 0.4 ESE 9 17 5 9 1020.1 - 0.0
24/09:00pm 11.2 10.2 10.3 94 0.5 S 6 7 3 4 1019.8 1019.0 0.0
24/08:30pm 10.9 9.6 10.0 94 0.5 SE 7 13 4 7 1019.4 - 0.0
24/08:00pm 10.5 9.0 9.1 91 0.7 SE 7 9 4 5 1019.0 1018.1 0.0
24/07:30pm 10.7 9.2 8.5 86 1.1 SSE 6 9 3 5 1018.6 - 0.0
24/07:00pm 9.0 7.0 4.4 73 2.1 S 4 11 2 6 1018.2 1017.3 0.0
24/06:30pm 10.1 8.7 3.4 63 3.0 CALM 0 0 0 0 1017.5 - 0.0
24/06:00pm 12.7 10.5 3.4 53 4.3 NW 4 4 2 2 1016.9 1016.0 0.0
24/05:30pm 13.8 11.3 3.9 51 4.7 NW 6 13 3 7 1016.3 - 0.0
24/05:00pm 16.8 12.5 3.5 41 6.4 WNW 15 20 8 11 1015.6 1014.7 0.0
24/04:30pm 18.2 13.8 2.9 36 7.3 WNW 15 22 8 12 1015.2 - 0.0
24/04:00pm 18.8 14.1 3.4 36 7.5 WNW 17 22 9 12 1014.8 1013.9 0.0
24/03:30pm 19.2 13.2 3.4 35 7.7 W 24 33 13 18 1014.6 - 0.0
24/03:00pm 19.4 12.7 3.6 35 7.7 WNW 28 41 15 22 1014.2 1013.2 0.0
24/02:30pm 19.6 12.5 5.6 40 7.1 WNW 32 44 17 24 1013.8 - 0.0
24/02:06pm 19.7 12.6 5.4 39 7.3 WNW 32 52 17 28 1013.6 - 0.0
24/02:00pm 19.8 13.1 7.2 44 6.6 NW 32 48 17 26 1013.7 1012.8 0.0
24/01:30pm 18.9 12.2 8.3 50 5.7 WNW 33 48 18 26 1013.5 - 0.0
24/01:00pm 19.0 12.9 8.4 50 5.7 W 30 44 16 24 1013.7 1012.8 0.0
24/12:30pm 19.7 14.2 9.0 50 5.8 WNW 28 39 15 21 1013.9 - 0.0
24/12:00pm 19.5 13.0 9.1 51 5.7 WNW 33 48 18 26 1014.3 1013.3 0.0
24/11:30am 19.4 13.9 9.3 52 5.5 WNW 28 43 15 23 1014.3 - 0.0
24/11:00am 19.1 13.4 9.9 55 5.1 WNW 30 43 16 23 1014.5 1013.5 0.0
24/10:30am 18.5 15.3 10.1 58 4.6 NW 17 28 9 15 1014.7 - 0.0
24/10:00am 17.9 14.8 9.0 56 4.8 NNW 15 22 8 12 1014.8 1013.9 0.0
24/09:30am 17.2 14.1 8.9 58 4.4 NNW 15 26 8 14 1014.6 - 0.0
24/09:00am 15.9 12.9 7.9 59 4.2 NNW 13 24 7 13 1014.7 1013.8 0.0
24/08:30am 14.6 11.5 7.2 61 3.8 NNW 13 20 7 11 1014.8 - 0.0
24/08:00am 12.8 10.7 8.3 74 2.3 NNW 9 15 5 8 1014.6 1013.7 0.0
24/07:30am 9.1 6.9 6.2 82 1.4 NNW 7 13 4 7 1014.4 - 0.0
24/07:00am 9.4 6.8 5.9 79 1.7 NNW 9 13 5 7 1014.3 1013.3 0.0
24/06:30am 9.7 7.1 6.1 78 1.7 NNW 9 13 5 7 1014.2 - 0.0
24/06:00am 10.5 8.0 6.5 76 1.9 NNW 9 15 5 8 1013.9 1013.0 0.0
24/05:30am 11.6 8.7 6.7 72 2.4 NNW 11 17 6 9 1013.7 - 0.0
24/05:00am 12.4 9.3 7.1 70 2.7 NW 13 19 7 10 1013.6 1012.7 0.0
24/04:30am 12.7 9.6 7.2 69 2.8 NW 13 19 7 10 1013.6 - 0.0
24/04:00am 12.8 10.2 7.7 71 2.6 NW 11 17 6 9 1013.5 1012.6 0.0
24/03:30am 12.6 10.4 7.9 73 2.4 NNW 9 15 5 8 1013.6 - 0.0
24/03:00am 13.0 10.9 8.1 72 2.5 NNW 9 17 5 9 1013.7 1012.8 0.0
24/02:30am 13.2 10.7 8.3 72 2.5 NW 11 17 6 9 1014.2 - 0.0
24/02:00am 12.9 10.8 8.4 74 2.3 NNW 9 17 5 9 1014.4 1013.4 0.0
24/01:30am 12.8 11.1 8.5 75 2.2 NW 7 11 4 6 1014.7 - 0.0
24/01:00am 12.9 11.2 8.2 73 2.4 NW 7 11 4 6 1014.8 1013.9 0.0
24/12:30am 13.5 11.9 8.6 72 2.5 NNW 7 13 4 7 1014.9 - 0.0
24/12:00am 14.0 11.6 8.8 71 2.7 NW 11 17 6 9 1015.1 1014.2 0.0
 
Date/Time
EST
Tmp

°C
App
Tmp
°C
Dew
Point
°C
Rel
Hum
%
Delta-T

°C
Wind Press
QNH
hPa
Press
MSL
hPa
Rain
since
9 am
mm
Dir
 
Spd
km/h
Gust
km/h
Spd
kts
Gust
kts
23/11:30pm 11.8 10.3 8.6 81 1.6 NW 6 7 3 4 1015.3 - 0.0
23/11:00pm 11.0 10.6 8.1 82 1.5 CALM 0 0 0 0 1015.4 1014.5 0.0
23/10:30pm 11.4 11.1 8.6 83 1.4 CALM 0 0 0 0 1015.6 - 0.0
23/10:00pm 11.1 10.7 8.3 83 1.4 CALM 0 0 0 0 1015.8 1014.8 0.0
23/09:30pm 11.6 10.8 8.3 80 1.7 ENE 2 4 1 2 1016.0 - 0.0
23/09:00pm 11.9 11.4 7.8 76 2.1 CALM 0 0 0 0 1016.1 1015.2 0.0
23/08:30pm 13.3 12.6 8.6 73 2.4 NNW 2 6 1 3 1016.1 - 0.0
23/08:00pm 12.9 11.5 8.8 76 2.1 NNW 6 9 3 5 1015.9 1015.0 0.0
23/07:30pm 12.9 11.9 9.0 77 2.0 NNW 4 9 2 5 1016.1 - 0.0
23/07:00pm 12.4 11.0 8.9 79 1.8 NNW 6 7 3 4 1016.3 1015.4 0.0
23/06:30pm 12.2 11.8 8.3 77 2.0 CALM 0 0 0 0 1016.3 - 0.0
23/06:00pm 13.2 12.8 8.3 72 2.5 CALM 0 0 0 0 1016.2 1015.3 0.0
23/05:30pm 14.1 12.6 8.5 69 2.9 NNW 6 9 3 5 1016.0 - 0.0
23/05:00pm 15.8 14.3 8.5 62 3.8 NNW 6 7 3 4 1015.6 1014.7 0.0
23/04:30pm 18.4 17.0 9.5 56 4.8 NNW 7 11 4 6 1015.5 - 0.0
23/04:00pm 19.6 17.1 8.3 48 6.1 NNW 11 20 6 11 1015.5 1014.6 0.0
23/03:30pm 20.2 17.7 9.7 51 5.8 NW 13 22 7 12 1015.9 - 0.0
23/03:00pm 20.4 18.5 10.5 53 5.5 NW 11 20 6 11 1015.9 1015.0 0.0
23/02:30pm 20.6 18.7 10.4 52 5.7 NW 11 19 6 10 1016.0 - 0.0
23/02:00pm 19.2 15.9 8.2 49 5.9 NW 15 24 8 13 1016.1 1015.2 0.0
23/01:30pm 19.2 14.8 7.3 46 6.2 WNW 20 30 11 16 1016.3 - 0.0
23/01:00pm 19.9 18.0 10.6 55 5.2 NW 11 20 6 11 1016.8 1015.9 0.0
23/12:30pm 17.7 14.5 10.1 61 4.2 WNW 17 24 9 13 1017.4 - 0.0
23/12:00pm 17.9 14.4 8.7 55 4.9 W 17 24 9 13 1018.2 1017.3 0.0
23/11:30am 18.0 18.2 10.4 61 4.2 CALM 0 0 0 0 1018.5 - 0.0
23/11:00am 18.2 18.3 10.1 59 4.4 CALM 0 0 0 0 1018.7 1017.9 0.0
23/10:30am 17.2 17.2 9.9 62 4.0 CALM 0 2 0 1 1019.3 - 0.0
23/10:00am 14.7 14.4 11.3 80 1.9 NNW 4 6 2 3 1019.6 1018.7 0.0
23/09:30am 12.6 12.5 9.6 82 1.6 CALM 0 0 0 0 1019.7 - 0.0
23/09:00am 12.5 11.2 9.3 81 1.7 NW 6 7 3 4 1019.6 1018.7 0.4
23/08:30am 11.9 12.2 10.8 93 0.6 CALM 0 4 0 2 1019.5 - 0.4
23/08:00am 9.6 9.3 8.7 94 0.5 CALM 0 0 0 0 1019.6 1018.7 0.4
23/07:30am 8.8 8.3 8.0 95 0.4 CALM 0 0 0 0 1019.4 - 0.4
23/07:00am 8.0 7.0 7.2 95 0.4 SSW 2 7 1 4 1019.3 1018.4 0.4
23/06:30am 7.1 6.2 6.0 93 0.5 CALM 0 2 0 1 1018.8 - 0.4
23/06:00am 8.0 7.3 6.8 92 0.6 CALM 0 7 0 4 1018.6 1017.8 0.4
23/05:30am 9.1 8.7 8.2 94 0.5 CALM 0 0 0 0 1018.5 - 0.4
23/05:00am 9.1 8.7 8.3 95 0.4 CALM 0 0 0 0 1018.5 1017.7 0.2
23/04:30am 8.3 7.7 7.4 94 0.4 CALM 0 0 0 0 1018.2 - 0.2
23/04:00am 8.2 7.6 7.3 94 0.4 CALM 0 0 0 0 1018.4 1017.5 0.2
23/03:30am 7.9 7.2 7.0 94 0.4 CALM 0 0 0 0 1018.4 - 0.2
23/03:00am 7.7 7.0 6.8 94 0.4 CALM 0 0 0 0 1018.1 1017.2 0.2
23/02:30am 7.4 6.6 6.5 94 0.4 CALM 0 0 0 0 1017.9 - 0.0
23/02:00am 7.1 6.3 6.4 95 0.3 CALM 0 0 0 0 1018.2 1017.3 0.0
23/01:30am 6.1 5.0 5.2 94 0.4 CALM 0 0 0 0 1018.4 - 0.0
23/01:00am 5.2 3.9 4.0 92 0.5 CALM 0 0 0 0 1018.5 1017.7 0.0
23/12:30am 5.5 4.2 4.3 92 0.5 CALM 0 0 0 0 1018.6 - 0.0
23/12:00am 5.4 4.1 4.1 91 0.6 CALM 0 0 0 0 1018.6 1017.8 0.0
 
Date/Time
EST
Tmp

°C
App
Tmp
°C
Dew
Point
°C
Rel
Hum
%
Delta-T

°C
Wind Press
QNH
hPa
Press
MSL
hPa
Rain
since
9 am
mm
Dir
 
Spd
km/h
Gust
km/h
Spd
kts
Gust
kts
22/11:30pm 6.9 6.0 6.0 94 0.4 CALM 0 0 0 0 1018.6 - 0.0
22/11:00pm 5.6 4.3 4.1 90 0.7 CALM 0 0 0 0 1019.0 1018.1 0.0
22/10:30pm 6.2 5.0 4.7 90 0.7 CALM 0 0 0 0 1018.8 - 0.0
22/10:00pm 6.4 5.1 4.1 85 1.0 CALM 0 0 0 0 1019.1 1018.2 0.0
22/09:30pm 8.2 7.4 6.5 89 0.8 CALM 0 0 0 0 1018.8 - 0.0
22/09:00pm 8.3 7.2 5.1 80 1.5 CALM 0 0 0 0 1018.6 1017.8 0.0
22/08:30pm 9.8 7.8 6.2 78 1.7 NNW 6 7 3 4 1018.5 - 0.0
22/08:00pm 10.1 9.0 6.8 80 1.6 NNW 2 6 1 3 1018.4 1017.5 0.0
22/07:30pm 10.0 8.4 6.5 79 1.7 N 4 6 2 3 1018.4 - 0.0
22/07:00pm 11.3 9.8 7.0 75 2.1 NNW 4 9 2 5 1018.1 1017.2 0.0
22/06:30pm 11.9 10.5 7.2 73 2.3 NNW 4 9 2 5 1017.9 - 0.0
22/06:00pm 12.6 11.3 7.5 71 2.6 N 4 7 2 4 1017.4 1016.5 0.0
22/05:30pm 14.0 12.3 7.5 65 3.3 N 6 9 3 5 1016.9 - 0.0
22/05:00pm 14.7 11.7 7.7 63 3.6 NW 13 22 7 12 1016.7 1015.8 0.0
22/04:30pm 15.8 12.7 7.3 57 4.4 NW 13 19 7 10 1016.8 - 0.0
22/04:00pm 16.7 13.7 7.6 55 4.7 NW 13 22 7 12 1016.6 1015.7 0.0
22/03:30pm 17.6 14.6 7.9 53 5.1 NW 13 20 7 11 1016.4 - 0.0
22/03:00pm 18.6 15.8 8.6 52 5.4 NW 13 19 7 10 1016.4 1015.5 0.0
22/02:30pm 20.0 16.6 9.0 49 6.0 NW 17 24 9 13 1016.0 - 0.0
22/02:00pm 19.9 17.8 9.8 52 5.6 NNW 11 19 6 10 1016.2 1015.3 0.0
22/01:30pm 20.5 19.0 9.1 48 6.2 NNW 7 13 4 7 1016.3 - 0.0
22/01:00pm 20.6 16.5 2.4 30 8.8 WNW 13 17 7 9 1016.5 1015.6 0.0
22/12:30pm 21.0 16.7 3.2 31 8.7 WNW 15 22 8 12 1017.1 - 0.0
22/12:00pm 21.3 20.0 7.5 41 7.4 NNE 4 13 2 7 1017.5 1016.6 0.0
22/11:30am 20.9 19.3 6.4 39 7.6 N 4 9 2 5 1017.9 - 0.0
22/11:00am 19.6 18.8 6.7 43 6.7 CALM 0 6 0 3 1018.2 1017.3 0.0
22/10:30am 18.7 18.1 8.9 53 5.3 N 2 6 1 3 1018.6 - 0.0
22/10:00am 17.8 17.8 9.9 60 4.3 CALM 0 0 0 0 1018.8 1018.0 0.0
22/09:30am 14.8 15.0 10.4 75 2.4 CALM 0 0 0 0 1019.2 - 0.0
22/09:00am 13.6 13.7 10.2 80 1.8 CALM 0 0 0 0 1019.2 1018.3 0.0
22/08:30am 12.2 12.6 11.4 95 0.4 CALM 0 0 0 0 1019.3 - 0.0
22/08:00am 9.8 9.6 9.2 96 0.3 CALM 0 0 0 0 1019.2 1018.3 0.0
22/07:30am 7.2 6.4 6.3 94 0.4 CALM 0 0 0 0 1019.2 - 0.0
22/07:00am 8.1 7.1 7.3 95 0.4 N 2 6 1 3 1019.2 1018.3 0.0
22/06:30am 8.0 7.0 7.4 96 0.3 N 2 7 1 4 1019.1 - 0.0
22/06:00am 7.3 6.5 6.7 96 0.3 CALM 0 0 0 0 1019.3 1018.4 0.0
22/05:30am 7.1 6.3 6.5 96 0.3 CALM 0 0 0 0 1019.2 - 0.0
22/05:00am 6.8 5.9 6.1 95 0.3 CALM 0 0 0 0 1019.1 1018.2 0.0
22/04:30am 6.6 5.3 5.9 95 0.3 N 2 7 1 4 1019.0 - 0.0
22/04:00am 7.5 6.0 6.8 95 0.3 N 4 7 2 4 1019.1 1018.2 0.0
22/03:30am 7.4 6.6 6.7 95 0.3 CALM 0 0 0 0 1019.0 - 0.0
22/03:00am 7.3 6.5 6.6 95 0.3 CALM 0 0 0 0 1019.2 1018.3 0.0
22/02:30am 7.2 6.4 6.5 95 0.3 CALM 0 0 0 0 1019.4 - 0.0
22/02:00am 7.5 6.8 6.8 95 0.3 CALM 0 7 0 4 1019.6 1018.7 0.0
22/01:30am 7.5 6.8 6.8 95 0.3 CALM 0 0 0 0 1019.9 - 0.0
22/01:00am 7.7 7.0 7.0 95 0.3 CALM 0 0 0 0 1020.2 1019.4 0.0
22/12:30am 8.8 8.3 8.0 95 0.4 CALM 0 0 0 0 1020.3 - 0.0
22/12:00am 9.6 9.4 9.0 96 0.3 CALM 0 6 0 3 1020.4 1019.6 0.0
 
Date/Time
EST
Tmp

°C
App
Tmp
°C
Dew
Point
°C
Rel
Hum
%
Delta-T

°C
Wind Press
QNH
hPa
Press
MSL
hPa
Rain
since
9 am
mm
Dir
 
Spd
km/h
Gust
km/h
Spd
kts
Gust
kts
21/11:30pm 8.1 7.5 7.2 94 0.4 CALM 0 0 0 0 1020.7 - 0.0

Latest Capital City Observations: Canberra | Sydney | Melbourne | Brisbane | Adelaide | Perth | Hobart | Darwin

Other Formats:

Comma delimited format used in spreadsheet applications
http://www.bom.gov.au/fwo/IDN60903/IDN60903.94927.axf

JavaScript Object Notation format (JSON) in row-major order
http://www.bom.gov.au/fwo/IDN60903/IDN60903.94927.json